createdAt,value
2022-11-08T00:02:26.207Z,100493.76
2022-11-08T00:04:55.910Z,100492.42
2022-11-08T00:07:41.117Z,100492.18
2022-11-08T00:10:26.803Z,100490.48
2022-11-08T00:13:12.168Z,100493.28
2022-11-08T00:15:39.102Z,100490.38
2022-11-08T00:18:07.145Z,100488.77
2022-11-08T00:20:34.779Z,100487.66
2022-11-08T00:23:02.173Z,100485.05
2022-11-08T00:25:28.706Z,100488.30
2022-11-08T00:27:55.426Z,100479.88
2022-11-08T00:30:22.097Z,100481.03
2022-11-08T00:32:48.523Z,100486.55
2022-11-08T00:35:15.324Z,100489.33
2022-11-08T00:37:41.841Z,100491.62
2022-11-08T00:40:08.943Z,100493.20
2022-11-08T00:42:35.455Z,100494.59
2022-11-08T00:45:01.894Z,100490.90
2022-11-08T00:47:28.349Z,100491.60
2022-11-08T00:49:55.184Z,100486.89
2022-11-08T00:52:21.698Z,100490.78
2022-11-08T00:54:48.143Z,100488.23
2022-11-08T00:57:14.706Z,100489.02
2022-11-08T00:59:41.223Z,100492.85
2022-11-08T01:02:08.003Z,100494.05
2022-11-08T01:04:34.563Z,100490.27
2022-11-08T01:07:01.136Z,100488.77
2022-11-08T01:09:27.636Z,100489.77
2022-11-08T01:11:54.074Z,100493.85
2022-11-08T01:14:20.637Z,100489.27
2022-11-08T01:16:47.501Z,100487.44
2022-11-08T01:19:14.031Z,100485.15
2022-11-08T01:21:40.572Z,100483.80
2022-11-08T01:24:07.534Z,100486.55
2022-11-08T01:26:34.251Z,100488.50
2022-11-08T01:29:00.854Z,100488.29
2022-11-08T01:31:30.722Z,100482.82
2022-11-08T01:34:00.897Z,100483.44
2022-11-08T01:36:28.611Z,100482.11
2022-11-08T01:38:56.282Z,100478.56
2022-11-08T01:41:24.376Z,100480.77
2022-11-08T01:43:59.824Z,100479.34
2022-11-08T01:46:36.958Z,100473.29
2022-11-08T01:49:22.341Z,100473.16
2022-11-08T01:52:10.829Z,100469.56
2022-11-08T01:54:56.586Z,100468.94
2022-11-08T01:57:31.504Z,100472.86
2022-11-08T02:00:00.665Z,100476.57
2022-11-08T02:02:28.371Z,100470.20
2022-11-08T02:04:55.824Z,100468.95
2022-11-08T02:07:22.946Z,100472.62
2022-11-08T02:09:49.476Z,100474.29
2022-11-08T02:12:20.853Z,100472.65
2022-11-08T02:14:47.385Z,100468.63
2022-11-08T02:17:14.565Z,100464.77
2022-11-08T02:19:49.691Z,100460.42
2022-11-08T02:22:35.334Z,100457.14
2022-11-08T02:25:03.058Z,100457.73
2022-11-08T02:27:29.468Z,100457.34
2022-11-08T02:29:56.584Z,100455.64
2022-11-08T02:32:24.502Z,100457.95
2022-11-08T02:34:58.190Z,100462.51
2022-11-08T02:37:26.116Z,100461.77
2022-11-08T02:39:52.589Z,100461.67
2022-11-08T02:42:21.042Z,100457.44
2022-11-08T02:44:47.813Z,100451.73
2022-11-08T02:47:15.286Z,100455.38
2022-11-08T02:49:42.447Z,100450.34
2022-11-08T02:52:09.484Z,100452.15
2022-11-08T02:54:35.994Z,100455.12
2022-11-08T02:57:02.729Z,100453.44
2022-11-08T02:59:29.287Z,100450.95
2022-11-08T03:01:55.854Z,100453.26
2022-11-08T03:04:22.684Z,100456.27
2022-11-08T03:06:49.093Z,100451.94
2022-11-08T03:09:15.717Z,100448.31
2022-11-08T03:11:42.185Z,100453.83
2022-11-08T03:14:08.800Z,100454.67
2022-11-08T03:16:35.384Z,100455.45
2022-11-08T03:19:01.927Z,100452.17
2022-11-08T03:21:28.508Z,100451.23
2022-11-08T03:23:55.019Z,100454.98
2022-11-08T03:26:21.581Z,100443.60
2022-11-08T03:28:48.152Z,100441.10
2022-11-08T03:31:14.724Z,100441.73
2022-11-08T03:33:41.227Z,100440.33
2022-11-08T03:36:08.086Z,100437.17
2022-11-08T03:38:34.882Z,100441.00
2022-11-08T03:41:01.344Z,100440.70
2022-11-08T03:43:27.980Z,100436.95
2022-11-08T03:45:54.481Z,100437.38
2022-11-08T03:48:23.583Z,100442.03
2022-11-08T03:50:51.932Z,100444.39
2022-11-08T03:53:18.920Z,100442.77
2022-11-08T03:55:45.504Z,100446.14
2022-11-08T03:58:12.252Z,100446.40
2022-11-08T04:00:38.885Z,100441.63
2022-11-08T04:03:05.407Z,100439.30
2022-11-08T04:05:32.586Z,100441.59
2022-11-08T04:08:01.281Z,100436.50
2022-11-08T04:10:27.738Z,100430.63
2022-11-08T04:13:12.998Z,100434.81
2022-11-08T04:15:39.531Z,100431.33
2022-11-08T04:18:24.801Z,100429.12
2022-11-08T04:21:09.563Z,100431.85
2022-11-08T04:23:37.224Z,100427.48
2022-11-08T04:26:07.166Z,100427.40
2022-11-08T04:28:36.492Z,100428.80
2022-11-08T04:31:08.984Z,100425.73
2022-11-08T04:33:35.823Z,100427.56
2022-11-08T04:36:06.082Z,100438.43
2022-11-08T04:38:32.727Z,100430.06
2022-11-08T04:41:04.767Z,100431.02
2022-11-08T04:43:32.283Z,100427.83
2022-11-08T04:46:04.572Z,100428.50
2022-11-08T04:48:31.819Z,100424.41
2022-11-08T04:51:03.474Z,100421.16
2022-11-08T04:53:30.055Z,100420.19
2022-11-08T04:56:08.755Z,100419.58
2022-11-08T04:58:40.612Z,100424.03
2022-11-08T05:01:08.976Z,100421.30
2022-11-08T05:03:35.949Z,100424.75
2022-11-08T05:06:04.923Z,100420.67
2022-11-08T05:08:31.972Z,100420.06
2022-11-08T05:11:02.790Z,100417.89
2022-11-08T05:13:30.100Z,100415.30
2022-11-08T05:16:05.516Z,100409.76
2022-11-08T05:18:33.109Z,100411.71
2022-11-08T05:21:20.248Z,100413.27
2022-11-08T05:23:48.689Z,100410.59
2022-11-08T05:26:16.566Z,100406.18
2022-11-08T05:28:43.099Z,100401.96
2022-11-08T05:31:09.952Z,100404.20
2022-11-08T05:33:37.127Z,100403.29
2022-11-08T05:36:06.206Z,100405.66
2022-11-08T05:38:33.346Z,100405.50
2022-11-08T05:41:04.429Z,100399.69
2022-11-08T05:43:31.168Z,100399.69
2022-11-08T05:45:57.657Z,100399.09
2022-11-08T05:48:24.169Z,100390.05
2022-11-08T05:50:50.720Z,100390.58
2022-11-08T05:53:17.952Z,100388.50
2022-11-08T05:55:44.690Z,100385.89
2022-11-08T05:58:11.151Z,100385.16
2022-11-08T06:00:37.561Z,100380.39
2022-11-08T06:03:05.575Z,100378.30
2022-11-08T06:05:32.810Z,100375.09
2022-11-08T06:07:59.241Z,100379.61
2022-11-08T06:10:26.250Z,100378.62
2022-11-08T06:12:52.787Z,100377.67
2022-11-08T06:15:19.362Z,100378.77
2022-11-08T06:17:46.391Z,100373.11
2022-11-08T06:20:15.263Z,100372.17
2022-11-08T06:22:43.424Z,100374.72
2022-11-08T06:25:10.918Z,100378.67
2022-11-08T06:27:37.421Z,100380.70
2022-11-08T06:30:05.152Z,100379.84
2022-11-08T06:32:31.727Z,100381.70
2022-11-08T06:34:58.158Z,100381.79
2022-11-08T06:37:24.807Z,100381.96
2022-11-08T06:39:51.287Z,100385.73
2022-11-08T06:42:17.836Z,100388.25
2022-11-08T06:44:44.266Z,100385.83
2022-11-08T06:47:10.717Z,100387.77
2022-11-08T06:49:37.766Z,100386.27
2022-11-08T06:52:04.629Z,100387.23
2022-11-08T06:54:31.174Z,100389.60
2022-11-08T06:57:00.360Z,100392.77
2022-11-08T06:59:27.475Z,100393.53
2022-11-08T07:01:54.777Z,100396.02
2022-11-08T07:04:21.306Z,100397.13
2022-11-08T07:06:47.910Z,100395.35
2022-11-08T07:09:14.342Z,100393.71
2022-11-08T07:11:41.019Z,100385.95
2022-11-08T07:14:07.478Z,100384.65
2022-11-08T07:16:33.894Z,100386.90
2022-11-08T07:19:00.270Z,100385.18
2022-11-08T07:21:26.795Z,100387.33
2022-11-08T07:23:53.363Z,100381.65
2022-11-08T07:26:19.874Z,100383.27
2022-11-08T07:28:46.401Z,100382.29
2022-11-08T07:31:12.863Z,100382.11
2022-11-08T07:33:39.294Z,100384.39
2022-11-08T07:36:05.922Z,100386.11
2022-11-08T07:38:32.591Z,100383.70
2022-11-08T07:41:01.278Z,100389.48
2022-11-08T07:43:28.846Z,100383.65
2022-11-08T07:46:00.730Z,100379.98
2022-11-08T07:48:29.159Z,100379.50
2022-11-08T07:50:56.021Z,100379.34
2022-11-08T07:53:22.601Z,100376.77
2022-11-08T07:55:49.378Z,100374.49
2022-11-08T07:58:17.015Z,100367.59
2022-11-08T08:00:45.222Z,100366.58
2022-11-08T08:03:13.834Z,100365.88
2022-11-08T08:05:45.574Z,100367.48
2022-11-08T08:08:13.744Z,100365.96
2022-11-08T08:10:41.742Z,100360.88
2022-11-08T08:13:09.296Z,100351.18
2022-11-08T08:15:36.075Z,100341.86
2022-11-08T08:18:04.686Z,100338.04
2022-11-08T08:20:32.093Z,100334.00
2022-11-08T08:22:59.409Z,100337.10
2022-11-08T08:25:27.307Z,100329.63
2022-11-08T08:27:55.744Z,100332.91
2022-11-08T08:30:23.559Z,100328.77
2022-11-08T08:33:08.347Z,100325.45
2022-11-08T08:35:37.694Z,100327.91
2022-11-08T08:38:05.834Z,100319.42
2022-11-08T08:40:34.144Z,100309.75
2022-11-08T08:43:01.167Z,100304.62
2022-11-08T08:45:27.765Z,100301.72
2022-11-08T08:47:56.032Z,100300.45
2022-11-08T08:50:23.267Z,100296.58
2022-11-08T08:52:49.765Z,100289.14
2022-11-08T08:55:17.311Z,100283.52
2022-11-08T08:57:45.584Z,100276.46
2022-11-08T09:03:05.258Z,100271.65
2022-11-08T09:05:32.665Z,100263.05
2022-11-08T09:07:59.098Z,100274.66
2022-11-08T09:10:26.559Z,100276.30
2022-11-08T09:12:52.984Z,100277.28
2022-11-08T09:15:19.884Z,100277.74
2022-11-08T09:17:46.491Z,100273.77
2022-11-08T09:20:14.402Z,100267.23
2022-11-08T09:22:40.820Z,100267.63
2022-11-08T09:25:07.447Z,100269.92
2022-11-08T09:27:33.908Z,100270.75
2022-11-08T09:30:00.337Z,100270.33
2022-11-08T09:32:46.648Z,100269.35
2022-11-08T09:35:16.453Z,100269.64
2022-11-08T09:37:47.039Z,100270.70
2022-11-08T09:40:20.580Z,100268.04
2022-11-08T09:43:03.087Z,100265.30
2022-11-08T09:45:37.905Z,100261.95
2022-11-08T09:48:07.714Z,100258.30
2022-11-08T09:50:45.494Z,100259.23
2022-11-08T09:53:15.073Z,100261.16
2022-11-08T09:55:58.420Z,100257.63
2022-11-08T09:58:38.937Z,100254.13
2022-11-08T10:01:05.608Z,100248.23
2022-11-08T10:03:32.066Z,100252.14
2022-11-08T10:06:19.074Z,100247.09
2022-11-08T10:09:11.033Z,100250.31
2022-11-08T10:11:43.719Z,100246.19
2022-11-08T10:14:24.364Z,100242.00
2022-11-08T10:17:21.120Z,100241.72
2022-11-08T10:20:07.281Z,100231.15
2022-11-08T10:22:49.251Z,100232.72
2022-11-08T10:25:36.219Z,100222.84
2022-11-08T10:28:06.383Z,100221.76
2022-11-08T10:30:36.923Z,100219.13
2022-11-08T10:33:19.362Z,100216.30
2022-11-08T10:36:15.340Z,100216.00
2022-11-08T10:39:09.809Z,100213.31
2022-11-08T10:42:13.602Z,100203.50
2022-11-08T10:44:41.758Z,100196.78
2022-11-08T10:47:23.234Z,100188.62
2022-11-08T10:49:49.792Z,100189.45
2022-11-08T10:52:35.164Z,100185.20
2022-11-08T10:55:01.915Z,100184.02
2022-11-08T10:57:28.328Z,100181.67
2022-11-08T10:59:56.706Z,100182.80
2022-11-08T11:02:23.292Z,100175.98
2022-11-08T11:04:51.281Z,100169.69
2022-11-08T11:07:36.185Z,100166.21
2022-11-08T11:10:25.098Z,100163.96
2022-11-08T11:13:05.199Z,100161.91
2022-11-08T11:15:34.868Z,100158.71
2022-11-08T11:18:02.075Z,100151.23
2022-11-08T11:20:28.987Z,100151.35
2022-11-08T11:22:55.436Z,100153.42
2022-11-08T11:25:24.021Z,100151.33
2022-11-08T11:27:55.036Z,100152.73
2022-11-08T11:30:31.425Z,100152.45
2022-11-08T11:33:04.469Z,100149.92
2022-11-08T11:35:42.150Z,100155.42
2022-11-08T11:38:18.847Z,100152.04
2022-11-08T11:40:46.904Z,100152.33
2022-11-08T11:43:20.136Z,100157.90
2022-11-08T11:46:04.179Z,100154.67
2022-11-08T11:48:36.406Z,100151.34
2022-11-08T11:51:03.231Z,100146.95
2022-11-08T11:53:33.155Z,100135.65
2022-11-08T11:56:26.387Z,100133.29
2022-11-08T11:59:17.879Z,100129.15
2022-11-08T12:01:47.314Z,100127.60
2022-11-08T12:04:51.724Z,100128.13
2022-11-08T12:07:24.246Z,100126.71
2022-11-08T12:10:44.851Z,100119.58
2022-11-08T12:13:19.494Z,100114.41
2022-11-08T12:15:59.076Z,100112.64
2022-11-08T12:18:44.674Z,100105.80
2022-11-08T12:21:52.734Z,100099.14
2022-11-08T12:24:28.264Z,100095.04
2022-11-08T12:27:06.651Z,100095.67
2022-11-08T12:29:39.131Z,100091.86
2022-11-08T12:32:45.389Z,100096.46
2022-11-08T12:35:45.741Z,100085.33
2022-11-08T12:38:39.640Z,100085.59
2022-11-08T12:41:15.232Z,100089.95
2022-11-08T12:44:12.215Z,100083.35
2022-11-08T12:47:03.376Z,100078.88
2022-11-08T12:49:46.278Z,100075.46
2022-11-08T12:52:43.428Z,100069.17
2022-11-08T12:55:23.714Z,100065.90
2022-11-08T12:57:53.632Z,100072.84
2022-11-08T13:00:20.479Z,100074.91
2022-11-08T13:03:02.440Z,100073.67
2022-11-08T13:05:39.411Z,100063.90
2022-11-08T13:08:17.554Z,100059.67
2022-11-08T13:10:56.734Z,100055.56
2022-11-08T13:13:23.116Z,100052.98
2022-11-08T13:16:15.461Z,100055.60
2022-11-08T13:18:55.787Z,100055.95
2022-11-08T13:21:28.646Z,100052.98
2022-11-08T13:24:42.809Z,100056.02
2022-11-08T13:27:36.131Z,100053.08
2022-11-08T13:30:11.665Z,100047.16
2022-11-08T13:32:44.312Z,100048.27
2022-11-08T13:35:28.519Z,100047.08
2022-11-08T13:38:23.071Z,100051.42
2022-11-08T13:41:05.332Z,100050.86
2022-11-08T13:43:35.761Z,100053.11
2022-11-08T13:46:27.041Z,100057.49
2022-11-08T13:49:17.180Z,100059.75
2022-11-08T13:51:43.831Z,100057.86
2022-11-08T13:54:22.589Z,100061.59
2022-11-08T13:56:51.715Z,100065.36
2022-11-08T13:59:30.275Z,100061.70
2022-11-08T14:02:04.568Z,100054.26
2022-11-08T14:04:40.546Z,100056.77
2022-11-08T14:07:26.801Z,100054.07
2022-11-08T14:10:16.525Z,100062.23
2022-11-08T14:13:26.961Z,100051.53
2022-11-08T14:15:58.446Z,100055.14
2022-11-08T14:18:29.287Z,100049.00
2022-11-08T14:20:56.339Z,100048.33
2022-11-08T14:23:26.992Z,100049.47
2022-11-08T14:25:56.426Z,100045.77
2022-11-08T14:28:24.271Z,100050.59
2022-11-08T14:30:51.338Z,100048.48
2022-11-08T14:33:22.417Z,100041.41
2022-11-08T14:36:04.755Z,100042.86
2022-11-08T14:38:35.455Z,100040.54
2022-11-08T14:41:05.590Z,100045.02
2022-11-08T14:43:43.310Z,100049.19
2022-11-08T14:46:16.303Z,100045.98
2022-11-08T14:48:54.240Z,100049.41
2022-11-08T14:51:21.083Z,100045.52
2022-11-08T14:53:50.493Z,100041.20
2022-11-08T14:56:36.821Z,100037.91
2022-11-08T14:59:07.023Z,100037.87
2022-11-08T15:01:35.376Z,100043.63
2022-11-08T15:04:22.508Z,100042.90
2022-11-08T15:06:53.417Z,100047.21
2022-11-08T15:09:26.154Z,100047.54
2022-11-08T15:11:58.598Z,100045.14
2022-11-08T15:14:29.941Z,100046.31
2022-11-08T15:17:01.685Z,100041.88
2022-11-08T15:19:41.167Z,100037.21
2022-11-08T15:22:31.327Z,100043.13
2022-11-08T15:25:12.948Z,100042.57
2022-11-08T15:27:50.307Z,100039.20
2022-11-08T15:30:18.255Z,100039.57
2022-11-08T15:32:44.865Z,100034.51
2022-11-08T15:35:23.843Z,100040.30
2022-11-08T15:37:51.709Z,100041.39
2022-11-08T15:40:28.284Z,100044.24
2022-11-08T15:42:54.951Z,100040.11
2022-11-08T15:45:28.843Z,100039.69
2022-11-08T15:48:10.758Z,100034.04
2022-11-08T15:50:37.341Z,100037.91
2022-11-08T15:53:04.512Z,100040.98
2022-11-08T15:55:48.477Z,100041.69
2022-11-08T15:58:17.454Z,100041.48
2022-11-08T16:00:46.552Z,100036.45
2022-11-08T16:03:13.170Z,100036.17
2022-11-08T16:05:39.606Z,100033.11
2022-11-08T16:08:06.181Z,100030.33
2022-11-08T16:10:39.895Z,100028.56
2022-11-08T16:13:07.641Z,100028.11
2022-11-08T16:15:35.708Z,100027.41
2022-11-08T16:18:02.817Z,100027.38
2022-11-08T16:20:36.848Z,100022.25
2022-11-08T16:23:06.009Z,100026.13
2022-11-08T16:25:40.802Z,100024.80
2022-11-08T16:28:16.216Z,100020.05
2022-11-08T16:30:46.744Z,100018.83
2022-11-08T16:33:20.783Z,100018.02
2022-11-08T16:35:47.825Z,100010.48
2022-11-08T16:38:14.437Z,100010.21
2022-11-08T16:40:42.843Z,100001.77
2022-11-08T16:43:12.410Z,99995.84
2022-11-08T16:46:03.745Z,99987.31
2022-11-08T16:48:27.085Z,99983.00
2022-11-08T16:51:02.922Z,99994.56
2022-11-08T16:53:30.396Z,99985.54
2022-11-08T16:55:57.902Z,99982.33
2022-11-08T16:58:25.999Z,99982.95
2022-11-08T17:00:52.754Z,99985.60
2022-11-08T17:03:21.903Z,99976.59
2022-11-08T17:05:48.747Z,99981.27
2022-11-08T17:08:15.540Z,99988.59
2022-11-08T17:10:43.020Z,99982.30
2022-11-08T17:13:14.102Z,99988.86
2022-11-08T17:15:40.791Z,99999.77
2022-11-08T17:18:07.406Z,100002.73
2022-11-08T17:20:33.860Z,100004.49
2022-11-08T17:23:00.642Z,100006.42
2022-11-08T17:25:27.172Z,100002.83
2022-11-08T17:27:53.669Z,100001.19
2022-11-08T17:30:26.336Z,100012.16
2022-11-08T17:32:54.092Z,100014.56
2022-11-08T17:35:20.828Z,100014.96
2022-11-08T17:37:47.459Z,100012.81
2022-11-08T17:40:14.703Z,100014.59
2022-11-08T17:42:45.312Z,100022.65
2022-11-08T17:45:12.648Z,100022.32
2022-11-08T17:47:39.111Z,100025.04
2022-11-08T17:50:06.721Z,100026.10
2022-11-08T17:52:33.305Z,100024.92
2022-11-08T17:54:59.746Z,100029.52
2022-11-08T17:57:26.321Z,100031.13
2022-11-08T17:59:53.202Z,100029.41
2022-11-08T18:02:19.711Z,100025.96
2022-11-08T18:04:46.261Z,100027.77
2022-11-08T18:07:12.922Z,100027.58
2022-11-08T18:09:39.637Z,100030.45
2022-11-08T18:12:06.191Z,100026.40
2022-11-08T18:14:33.008Z,100030.66
2022-11-08T18:16:59.881Z,100029.41
2022-11-08T18:19:26.730Z,100031.91
2022-11-08T18:21:53.549Z,100036.77
2022-11-08T18:24:20.331Z,100033.95
2022-11-08T18:26:46.827Z,100033.33
2022-11-08T18:29:13.572Z,100032.36
2022-11-08T18:31:40.078Z,100029.77
2022-11-08T18:34:06.605Z,100028.88
2022-11-08T18:36:33.172Z,100033.25
2022-11-08T18:39:01.197Z,100044.84
2022-11-08T18:41:30.941Z,100045.65
2022-11-08T18:43:58.956Z,100045.41
2022-11-08T18:46:30.155Z,100048.91
2022-11-08T18:48:56.709Z,100048.71
2022-11-08T18:51:23.684Z,100048.88
2022-11-08T18:53:52.361Z,100039.11
2022-11-08T18:56:19.752Z,100038.86
2022-11-08T18:58:46.767Z,100038.15
2022-11-08T19:01:14.267Z,100025.61
2022-11-08T19:03:41.638Z,100027.98
2022-11-08T19:06:08.721Z,100024.75
2022-11-08T19:08:36.868Z,100023.60
2022-11-08T19:11:08.035Z,100019.36
2022-11-08T19:13:36.544Z,100023.38
2022-11-08T19:16:04.635Z,100028.12
2022-11-08T19:18:32.014Z,100025.66
2022-11-08T19:21:04.924Z,100028.48
2022-11-08T19:23:32.155Z,100029.29
2022-11-08T19:26:06.889Z,100035.44
2022-11-08T19:28:36.730Z,100037.59
2022-11-08T19:31:04.280Z,100037.84
2022-11-08T19:33:32.749Z,100035.92
2022-11-08T19:36:13.328Z,100037.73
2022-11-08T19:38:40.916Z,100028.46
2022-11-08T19:41:13.023Z,100029.89
2022-11-08T19:43:41.750Z,100023.05
2022-11-08T19:46:13.265Z,100024.08
2022-11-08T19:48:41.359Z,100023.19
2022-11-08T19:51:13.523Z,100030.27
2022-11-08T19:53:40.901Z,100021.94
2022-11-08T19:56:10.249Z,100026.11
2022-11-08T19:58:37.998Z,100030.65
2022-11-08T20:01:19.598Z,100024.10
2022-11-08T20:03:47.249Z,100037.45
2022-11-08T20:06:16.467Z,100036.23
2022-11-08T20:08:46.590Z,100028.98
2022-11-08T20:11:16.763Z,100023.16
2022-11-08T20:13:43.786Z,100025.04
2022-11-08T20:16:15.073Z,100023.96
2022-11-08T20:18:41.852Z,100024.39
2022-11-08T20:21:10.037Z,100021.92
2022-11-08T20:23:37.229Z,100018.78
2022-11-08T20:26:06.161Z,100025.74
2022-11-08T20:28:34.420Z,100035.23
2022-11-08T20:31:08.058Z,100035.86
2022-11-08T20:33:37.470Z,100041.48
2022-11-08T20:36:05.777Z,100047.22
2022-11-08T20:38:33.086Z,100044.88
2022-11-08T20:41:00.154Z,100040.15
2022-11-08T20:43:27.745Z,100042.10
2022-11-08T20:45:54.679Z,100045.01
2022-11-08T20:48:21.514Z,100043.03
2022-11-08T20:50:48.117Z,100037.38
2022-11-08T20:53:14.847Z,100036.94
2022-11-08T20:55:41.282Z,100034.89
2022-11-08T20:58:07.824Z,100030.54
2022-11-08T21:00:56.540Z,100033.58
2022-11-08T21:03:22.318Z,100027.02
2022-11-08T21:05:53.415Z,100023.47
2022-11-08T21:11:09.550Z,100010.26
2022-11-08T21:13:38.159Z,100017.21
2022-11-08T21:16:28.273Z,100017.13
2022-11-08T21:18:52.265Z,100013.70
2022-11-08T21:21:22.428Z,100015.26
2022-11-08T21:23:49.005Z,100017.50
2022-11-08T21:26:17.575Z,100025.35
2022-11-08T21:28:46.841Z,100031.14
2022-11-08T21:31:14.177Z,100035.64
2022-11-08T21:33:40.813Z,100044.15
2022-11-08T21:36:08.126Z,100046.08
2022-11-08T21:38:38.894Z,100042.77
2022-11-08T21:41:07.786Z,100048.13
2022-11-08T21:43:35.944Z,100049.41
2022-11-08T21:46:20.249Z,100051.88
2022-11-08T21:48:58.808Z,100050.65
2022-11-08T21:51:26.578Z,100047.73
2022-11-08T21:53:58.452Z,100048.55
2022-11-08T21:56:29.611Z,100047.09
2022-11-08T21:58:57.287Z,100047.14
2022-11-08T22:01:30.549Z,100043.48
2022-11-08T22:04:01.909Z,100043.21
2022-11-08T22:06:29.640Z,100041.90
2022-11-08T22:08:57.928Z,100047.27
2022-11-08T22:11:24.471Z,100054.83
2022-11-08T22:13:51.050Z,100054.44
2022-11-08T22:16:17.830Z,100055.52
2022-11-08T22:21:41.059Z,100060.38
2022-11-08T22:24:13.631Z,100068.63
2022-11-08T22:26:41.484Z,100068.03
2022-11-08T22:29:08.683Z,100061.69
2022-11-08T22:31:35.622Z,100063.85
2022-11-08T22:34:03.778Z,100061.66
2022-11-08T22:36:30.231Z,100058.08
2022-11-08T22:38:56.892Z,100057.36
2022-11-08T22:41:24.251Z,100060.73
2022-11-08T22:43:51.725Z,100062.76
2022-11-08T22:46:18.755Z,100064.55
2022-11-08T22:48:45.277Z,100063.45
2022-11-08T22:51:12.159Z,100062.11
2022-11-08T22:53:39.135Z,100065.80
2022-11-08T22:56:10.965Z,100065.77
2022-11-08T22:58:37.787Z,100074.62
2022-11-08T23:01:04.563Z,100076.39
2022-11-08T23:03:31.144Z,100079.67
2022-11-08T23:05:57.653Z,100076.06
2022-11-08T23:08:26.441Z,100074.59
2022-11-08T23:11:12.220Z,100075.39
2022-11-08T23:13:58.444Z,100070.35
2022-11-08T23:16:37.857Z,100071.73
2022-11-08T23:19:26.281Z,100070.98
2022-11-08T23:29:50.814Z,100060.52
2022-11-08T23:32:17.585Z,100054.24
2022-11-08T23:34:44.004Z,100056.14
2022-11-08T23:37:10.511Z,100055.00
2022-11-08T23:39:56.996Z,100047.38
2022-11-08T23:42:42.199Z,100043.92
2022-11-08T23:45:09.162Z,100039.27
2022-11-08T23:47:35.702Z,100048.51
2022-11-08T23:50:02.355Z,100052.87
2022-11-08T23:52:28.839Z,100057.88
2022-11-08T23:54:55.271Z,100060.73
2022-11-08T23:57:21.709Z,100061.59
2022-11-08T23:59:48.199Z,100063.20
